sensor_id;sensor_type;location;lat;lon;timestamp;P1;durP1;ratioP1;P2;durP2;ratioP2
76837;SDS011;65797;47.352;8.164;2023-04-03T00:02:10;1.10;;;1.00;;
76837;SDS011;65797;47.352;8.164;2023-04-03T00:04:35;0.90;;;0.90;;
76837;SDS011;65797;47.352;8.164;2023-04-03T00:07:01;1.00;;;0.90;;
76837;SDS011;65797;47.352;8.164;2023-04-03T00:09:27;0.80;;;0.80;;
76837;SDS011;65797;47.352;8.164;2023-04-03T00:11:53;0.90;;;0.90;;
76837;SDS011;65797;47.352;8.164;2023-04-03T00:14:18;0.80;;;0.80;;
76837;SDS011;65797;47.352;8.164;2023-04-03T00:16:44;1.33;;;1.23;;
76837;SDS011;65797;47.352;8.164;2023-04-03T00:19:10;1.10;;;1.10;;
76837;SDS011;65797;47.352;8.164;2023-04-03T00:21:37;1.17;;;1.17;;
76837;SDS011;65797;47.352;8.164;2023-04-03T00:24:03;1.30;;;1.20;;
76837;SDS011;65797;47.352;8.164;2023-04-03T00:26:29;1.30;;;1.20;;
76837;SDS011;65797;47.352;8.164;2023-04-03T00:28:54;1.63;;;1.40;;
76837;SDS011;65797;47.352;8.164;2023-04-03T00:31:21;2.30;;;2.10;;
76837;SDS011;65797;47.352;8.164;2023-04-03T00:33:47;1.50;;;1.40;;
76837;SDS011;65797;47.352;8.164;2023-04-03T00:36:12;1.60;;;1.43;;
76837;SDS011;65797;47.352;8.164;2023-04-03T00:38:38;3.20;;;1.43;;
76837;SDS011;65797;47.352;8.164;2023-04-03T00:41:04;1.20;;;1.20;;
76837;SDS011;65797;47.352;8.164;2023-04-03T00:43:30;1.50;;;1.40;;
76837;SDS011;65797;47.352;8.164;2023-04-03T00:45:57;1.47;;;1.40;;
76837;SDS011;65797;47.352;8.164;2023-04-03T00:51:05;1.57;;;1.47;;
76837;SDS011;65797;47.352;8.164;2023-04-03T00:53:54;1.23;;;1.20;;
76837;SDS011;65797;47.352;8.164;2023-04-03T00:56:23;1.80;;;1.70;;
76837;SDS011;65797;47.352;8.164;2023-04-03T00:58:59;9.53;;;2.00;;
76837;SDS011;65797;47.352;8.164;2023-04-03T01:01:29;2.10;;;2.00;;
76837;SDS011;65797;47.352;8.164;2023-04-03T01:03:58;2.23;;;2.03;;
76837;SDS011;65797;47.352;8.164;2023-04-03T01:06:26;1.93;;;1.70;;
76837;SDS011;65797;47.352;8.164;2023-04-03T01:08:55;3.20;;;1.87;;
76837;SDS011;65797;47.352;8.164;2023-04-03T01:11:21;2.60;;;2.40;;
76837;SDS011;65797;47.352;8.164;2023-04-03T01:13:47;2.50;;;2.30;;
76837;SDS011;65797;47.352;8.164;2023-04-03T01:16:14;1.93;;;1.83;;
76837;SDS011;65797;47.352;8.164;2023-04-03T01:18:40;2.93;;;2.70;;
76837;SDS011;65797;47.352;8.164;2023-04-03T01:26:32;2.43;;;2.20;;
76837;SDS011;65797;47.352;8.164;2023-04-03T01:28:59;4.70;;;2.80;;
76837;SDS011;65797;47.352;8.164;2023-04-03T01:31:27;2.97;;;2.63;;
76837;SDS011;65797;47.352;8.164;2023-04-03T01:33:57;3.20;;;2.90;;
76837;SDS011;65797;47.352;8.164;2023-04-03T01:36:24;3.23;;;2.93;;
76837;SDS011;65797;47.352;8.164;2023-04-03T01:38:53;3.07;;;2.77;;
76837;SDS011;65797;47.352;8.164;2023-04-03T01:41:19;3.20;;;2.90;;
76837;SDS011;65797;47.352;8.164;2023-04-03T01:43:46;3.57;;;3.17;;
76837;SDS011;65797;47.352;8.164;2023-04-03T01:46:13;2.97;;;2.70;;
76837;SDS011;65797;47.352;8.164;2023-04-03T01:48:40;3.77;;;3.47;;
76837;SDS011;65797;47.352;8.164;2023-04-03T01:51:06;3.00;;;2.80;;
76837;SDS011;65797;47.352;8.164;2023-04-03T01:53:32;2.60;;;2.40;;
76837;SDS011;65797;47.352;8.164;2023-04-03T01:55:57;3.03;;;2.70;;
76837;SDS011;65797;47.352;8.164;2023-04-03T01:58:23;2.90;;;2.70;;
76837;SDS011;65797;47.352;8.164;2023-04-03T02:00:49;3.63;;;3.33;;
76837;SDS011;65797;47.352;8.164;2023-04-03T02:03:15;3.03;;;2.83;;
76837;SDS011;65797;47.352;8.164;2023-04-03T02:05:41;2.57;;;2.37;;
76837;SDS011;65797;47.352;8.164;2023-04-03T02:08:07;3.13;;;2.83;;
76837;SDS011;65797;47.352;8.164;2023-04-03T02:10:33;3.93;;;3.43;;
76837;SDS011;65797;47.352;8.164;2023-04-03T02:12:58;3.00;;;2.80;;
76837;SDS011;65797;47.352;8.164;2023-04-03T02:15:24;3.53;;;3.23;;
76837;SDS011;65797;47.352;8.164;2023-04-03T02:17:50;2.93;;;2.73;;
76837;SDS011;65797;47.352;8.164;2023-04-03T02:20:17;4.33;;;3.17;;
76837;SDS011;65797;47.352;8.164;2023-04-03T02:22:42;4.00;;;3.30;;
76837;SDS011;65797;47.352;8.164;2023-04-03T02:25:08;4.00;;;3.30;;
76837;SDS011;65797;47.352;8.164;2023-04-03T02:27:35;4.63;;;3.30;;
76837;SDS011;65797;47.352;8.164;2023-04-03T02:30:02;3.90;;;3.30;;
76837;SDS011;65797;47.352;8.164;2023-04-03T02:32:28;3.63;;;3.33;;
76837;SDS011;65797;47.352;8.164;2023-04-03T02:34:54;4.23;;;3.40;;
76837;SDS011;65797;47.352;8.164;2023-04-03T02:37:20;4.17;;;3.53;;
76837;SDS011;65797;47.352;8.164;2023-04-03T02:39:46;3.90;;;3.60;;
76837;SDS011;65797;47.352;8.164;2023-04-03T02:42:11;4.30;;;3.90;;
76837;SDS011;65797;47.352;8.164;2023-04-03T02:44:37;3.03;;;2.77;;
76837;SDS011;65797;47.352;8.164;2023-04-03T02:47:03;3.73;;;3.43;;
76837;SDS011;65797;47.352;8.164;2023-04-03T02:49:30;6.60;;;4.40;;
76837;SDS011;65797;47.352;8.164;2023-04-03T02:51:56;3.77;;;3.33;;
76837;SDS011;65797;47.352;8.164;2023-04-03T02:54:22;6.07;;;4.00;;
76837;SDS011;65797;47.352;8.164;2023-04-03T02:56:49;3.60;;;3.30;;
76837;SDS011;65797;47.352;8.164;2023-04-03T02:59:15;4.77;;;3.80;;
76837;SDS011;65797;47.352;8.164;2023-04-03T03:01:40;3.90;;;3.60;;
76837;SDS011;65797;47.352;8.164;2023-04-03T03:04:06;3.57;;;3.27;;
76837;SDS011;65797;47.352;8.164;2023-04-03T03:06:32;4.70;;;4.30;;
76837;SDS011;65797;47.352;8.164;2023-04-03T03:08:58;5.53;;;4.30;;
76837;SDS011;65797;47.352;8.164;2023-04-03T03:11:23;3.83;;;3.20;;
76837;SDS011;65797;47.352;8.164;2023-04-03T03:13:50;5.83;;;4.13;;
76837;SDS011;65797;47.352;8.164;2023-04-03T03:16:16;3.70;;;3.40;;
76837;SDS011;65797;47.352;8.164;2023-04-03T03:18:41;3.90;;;3.40;;
76837;SDS011;65797;47.352;8.164;2023-04-03T03:21:08;3.83;;;3.47;;
76837;SDS011;65797;47.352;8.164;2023-04-03T03:23:34;4.13;;;3.77;;
76837;SDS011;65797;47.352;8.164;2023-04-03T03:26:07;3.80;;;3.50;;
76837;SDS011;65797;47.352;8.164;2023-04-03T03:28:35;4.63;;;3.90;;
76837;SDS011;65797;47.352;8.164;2023-04-03T03:31:02;4.07;;;3.63;;
76837;SDS011;65797;47.352;8.164;2023-04-03T03:33:28;4.20;;;3.80;;
76837;SDS011;65797;47.352;8.164;2023-04-03T03:35:54;4.33;;;3.60;;
76837;SDS011;65797;47.352;8.164;2023-04-03T03:38:21;3.17;;;2.97;;
76837;SDS011;65797;47.352;8.164;2023-04-03T03:40:47;3.00;;;2.70;;
76837;SDS011;65797;47.352;8.164;2023-04-03T03:43:14;3.87;;;3.57;;
76837;SDS011;65797;47.352;8.164;2023-04-03T03:45:40;3.47;;;3.00;;
76837;SDS011;65797;47.352;8.164;2023-04-03T03:48:06;3.17;;;2.93;;
76837;SDS011;65797;47.352;8.164;2023-04-03T03:50:31;11.00;;;3.30;;
76837;SDS011;65797;47.352;8.164;2023-04-03T03:52:57;3.07;;;2.83;;
76837;SDS011;65797;47.352;8.164;2023-04-03T03:55:25;2.77;;;2.57;;
76837;SDS011;65797;47.352;8.164;2023-04-03T03:57:51;3.03;;;2.83;;
76837;SDS011;65797;47.352;8.164;2023-04-03T04:00:16;3.10;;;2.77;;
76837;SDS011;65797;47.352;8.164;2023-04-03T04:02:43;3.90;;;3.00;;
76837;SDS011;65797;47.352;8.164;2023-04-03T04:05:08;3.30;;;3.07;;
76837;SDS011;65797;47.352;8.164;2023-04-03T04:07:34;4.20;;;2.83;;
76837;SDS011;65797;47.352;8.164;2023-04-03T04:10:00;6.40;;;2.90;;
76837;SDS011;65797;47.352;8.164;2023-04-03T04:12:26;3.27;;;3.03;;
76837;SDS011;65797;47.352;8.164;2023-04-03T04:14:52;3.17;;;2.87;;
76837;SDS011;65797;47.352;8.164;2023-04-03T04:17:17;2.97;;;2.77;;
76837;SDS011;65797;47.352;8.164;2023-04-03T04:19:43;3.20;;;2.90;;
76837;SDS011;65797;47.352;8.164;2023-04-03T04:22:09;3.70;;;3.33;;
76837;SDS011;65797;47.352;8.164;2023-04-03T04:24:41;4.00;;;3.60;;
76837;SDS011;65797;47.352;8.164;2023-04-03T04:27:07;4.33;;;3.60;;
76837;SDS011;65797;47.352;8.164;2023-04-03T04:29:32;3.60;;;3.30;;
76837;SDS011;65797;47.352;8.164;2023-04-03T04:32:01;3.20;;;2.90;;
76837;SDS011;65797;47.352;8.164;2023-04-03T04:34:27;3.20;;;2.90;;
76837;SDS011;65797;47.352;8.164;2023-04-03T04:36:53;3.07;;;2.87;;
76837;SDS011;65797;47.352;8.164;2023-04-03T04:39:19;3.60;;;3.27;;
76837;SDS011;65797;47.352;8.164;2023-04-03T04:41:44;3.47;;;3.17;;
76837;SDS011;65797;47.352;8.164;2023-04-03T04:44:10;4.80;;;4.37;;
76837;SDS011;65797;47.352;8.164;2023-04-03T04:46:36;4.27;;;3.87;;
76837;SDS011;65797;47.352;8.164;2023-04-03T04:49:02;8.70;;;3.63;;
76837;SDS011;65797;47.352;8.164;2023-04-03T04:51:27;3.80;;;3.50;;
76837;SDS011;65797;47.352;8.164;2023-04-03T04:53:53;4.13;;;3.80;;
76837;SDS011;65797;47.352;8.164;2023-04-03T04:56:19;4.17;;;3.60;;
76837;SDS011;65797;47.352;8.164;2023-04-03T04:58:45;4.53;;;3.70;;
76837;SDS011;65797;47.352;8.164;2023-04-03T05:01:11;4.60;;;3.90;;
76837;SDS011;65797;47.352;8.164;2023-04-03T05:03:37;4.43;;;3.90;;
76837;SDS011;65797;47.352;8.164;2023-04-03T05:06:03;3.60;;;3.30;;
76837;SDS011;65797;47.352;8.164;2023-04-03T05:08:29;7.00;;;3.70;;
76837;SDS011;65797;47.352;8.164;2023-04-03T05:10:55;3.90;;;3.50;;
76837;SDS011;65797;47.352;8.164;2023-04-03T05:15:57;3.77;;;3.47;;
76837;SDS011;65797;47.352;8.164;2023-04-03T05:18:22;7.40;;;3.97;;
76837;SDS011;65797;47.352;8.164;2023-04-03T05:20:48;4.50;;;4.10;;
76837;SDS011;65797;47.352;8.164;2023-04-03T05:23:15;3.77;;;3.47;;
76837;SDS011;65797;47.352;8.164;2023-04-03T05:28:16;6.23;;;4.10;;
76837;SDS011;65797;47.352;8.164;2023-04-03T05:30:42;4.90;;;4.20;;
76837;SDS011;65797;47.352;8.164;2023-04-03T05:33:08;3.63;;;3.33;;
76837;SDS011;65797;47.352;8.164;2023-04-03T05:35:35;5.07;;;3.43;;
76837;SDS011;65797;47.352;8.164;2023-04-03T05:38:04;4.40;;;4.00;;
76837;SDS011;65797;47.352;8.164;2023-04-03T05:40:30;6.30;;;4.47;;
76837;SDS011;65797;47.352;8.164;2023-04-03T05:42:56;3.70;;;3.40;;
76837;SDS011;65797;47.352;8.164;2023-04-03T05:45:21;4.50;;;3.87;;
76837;SDS011;65797;47.352;8.164;2023-04-03T05:47:47;4.43;;;3.87;;
76837;SDS011;65797;47.352;8.164;2023-04-03T05:50:13;4.60;;;3.90;;
76837;SDS011;65797;47.352;8.164;2023-04-03T05:52:40;5.77;;;3.77;;
76837;SDS011;65797;47.352;8.164;2023-04-03T05:55:09;4.80;;;3.77;;
76837;SDS011;65797;47.352;8.164;2023-04-03T05:57:35;4.00;;;3.60;;
76837;SDS011;65797;47.352;8.164;2023-04-03T06:00:00;5.10;;;4.13;;
76837;SDS011;65797;47.352;8.164;2023-04-03T06:02:26;4.97;;;3.60;;
76837;SDS011;65797;47.352;8.164;2023-04-03T06:04:52;4.40;;;3.70;;
76837;SDS011;65797;47.352;8.164;2023-04-03T06:07:18;2.97;;;2.77;;
76837;SDS011;65797;47.352;8.164;2023-04-03T06:09:47;7.73;;;3.97;;
76837;SDS011;65797;47.352;8.164;2023-04-03T06:12:14;7.00;;;4.33;;
76837;SDS011;65797;47.352;8.164;2023-04-03T06:14:40;5.23;;;4.07;;
76837;SDS011;65797;47.352;8.164;2023-04-03T06:17:06;10.50;;;3.43;;
76837;SDS011;65797;47.352;8.164;2023-04-03T06:19:34;4.47;;;4.07;;
76837;SDS011;65797;47.352;8.164;2023-04-03T06:22:00;4.53;;;3.83;;
76837;SDS011;65797;47.352;8.164;2023-04-03T06:24:26;6.37;;;4.70;;
76837;SDS011;65797;47.352;8.164;2023-04-03T06:26:52;6.20;;;4.50;;
76837;SDS011;65797;47.352;8.164;2023-04-03T06:29:18;5.00;;;4.10;;
76837;SDS011;65797;47.352;8.164;2023-04-03T06:31:45;3.80;;;3.50;;
76837;SDS011;65797;47.352;8.164;2023-04-03T06:34:11;4.33;;;3.93;;
76837;SDS011;65797;47.352;8.164;2023-04-03T06:36:44;4.37;;;3.77;;
76837;SDS011;65797;47.352;8.164;2023-04-03T06:39:25;5.17;;;4.30;;
76837;SDS011;65797;47.352;8.164;2023-04-03T06:42:07;4.10;;;3.70;;
76837;SDS011;65797;47.352;8.164;2023-04-03T06:44:36;5.27;;;3.87;;
76837;SDS011;65797;47.352;8.164;2023-04-03T06:47:01;3.67;;;3.17;;
76837;SDS011;65797;47.352;8.164;2023-04-03T06:49:27;4.10;;;3.20;;
76837;SDS011;65797;47.352;8.164;2023-04-03T06:51:54;3.73;;;3.13;;
76837;SDS011;65797;47.352;8.164;2023-04-03T06:54:21;4.20;;;2.97;;
76837;SDS011;65797;47.352;8.164;2023-04-03T06:56:47;4.23;;;3.30;;
76837;SDS011;65797;47.352;8.164;2023-04-03T06:59:13;6.07;;;3.00;;
76837;SDS011;65797;47.352;8.164;2023-04-03T07:01:39;3.40;;;2.93;;
76837;SDS011;65797;47.352;8.164;2023-04-03T07:04:06;3.47;;;2.80;;
76837;SDS011;65797;47.352;8.164;2023-04-03T07:06:33;4.50;;;3.30;;
76837;SDS011;65797;47.352;8.164;2023-04-03T07:09:00;3.53;;;3.23;;
76837;SDS011;65797;47.352;8.164;2023-04-03T07:11:26;3.10;;;2.90;;
76837;SDS011;65797;47.352;8.164;2023-04-03T07:13:52;6.90;;;3.20;;
76837;SDS011;65797;47.352;8.164;2023-04-03T07:16:18;2.67;;;2.47;;
76837;SDS011;65797;47.352;8.164;2023-04-03T07:18:45;2.87;;;2.67;;
76837;SDS011;65797;47.352;8.164;2023-04-03T07:21:11;3.10;;;2.47;;
76837;SDS011;65797;47.352;8.164;2023-04-03T07:23:38;2.70;;;2.50;;
76837;SDS011;65797;47.352;8.164;2023-04-03T07:26:04;3.00;;;2.70;;
76837;SDS011;65797;47.352;8.164;2023-04-03T07:31:07;6.00;;;2.67;;
76837;SDS011;65797;47.352;8.164;2023-04-03T07:36:17;2.97;;;2.67;;
76837;SDS011;65797;47.352;8.164;2023-04-03T07:38:45;4.50;;;2.67;;
76837;SDS011;65797;47.352;8.164;2023-04-03T07:43:46;2.80;;;2.60;;
76837;SDS011;65797;47.352;8.164;2023-04-03T07:46:14;2.50;;;2.30;;
76837;SDS011;65797;47.352;8.164;2023-04-03T07:53:51;2.80;;;2.27;;
76837;SDS011;65797;47.352;8.164;2023-04-03T07:56:17;8.60;;;2.30;;
76837;SDS011;65797;47.352;8.164;2023-04-03T07:58:43;2.43;;;2.10;;
76837;SDS011;65797;47.352;8.164;2023-04-03T08:01:08;3.50;;;2.27;;
76837;SDS011;65797;47.352;8.164;2023-04-03T08:03:34;3.77;;;2.50;;
76837;SDS011;65797;47.352;8.164;2023-04-03T08:08:36;6.20;;;2.33;;
76837;SDS011;65797;47.352;8.164;2023-04-03T08:16:14;2.70;;;2.30;;
76837;SDS011;65797;47.352;8.164;2023-04-03T09:52:25;5.17;;;2.80;;
76837;SDS011;65797;47.352;8.164;2023-04-03T09:54:51;3.63;;;2.90;;
76837;SDS011;65797;47.352;8.164;2023-04-03T09:57:17;5.30;;;2.87;;
76837;SDS011;65797;47.352;8.164;2023-04-03T09:59:48;1.90;;;1.80;;
76837;SDS011;65797;47.352;8.164;2023-04-03T10:02:37;2.50;;;2.30;;
76837;SDS011;65797;47.352;8.164;2023-04-03T10:05:05;2.40;;;2.20;;
76837;SDS011;65797;47.352;8.164;2023-04-03T10:08:06;1.80;;;1.70;;
76837;SDS011;65797;47.352;8.164;2023-04-03T10:10:38;2.53;;;2.33;;
76837;SDS011;65797;47.352;8.164;2023-04-03T10:15:49;2.50;;;1.90;;
76837;SDS011;65797;47.352;8.164;2023-04-03T10:18:32;2.00;;;1.90;;
76837;SDS011;65797;47.352;8.164;2023-04-03T10:21:09;2.47;;;2.20;;
76837;SDS011;65797;47.352;8.164;2023-04-03T10:34:21;2.10;;;1.90;;
76837;SDS011;65797;47.352;8.164;2023-04-03T11:10:56;2.60;;;1.67;;
76837;SDS011;65797;47.352;8.164;2023-04-03T11:16:18;1.87;;;1.67;;
76837;SDS011;65797;47.352;8.164;2023-04-03T11:18:51;2.40;;;1.80;;
76837;SDS011;65797;47.352;8.164;2023-04-03T11:23:52;1.83;;;1.70;;
76837;SDS011;65797;47.352;8.164;2023-04-03T11:26:22;1.80;;;1.70;;
76837;SDS011;65797;47.352;8.164;2023-04-03T11:28:53;1.40;;;1.37;;
76837;SDS011;65797;47.352;8.164;2023-04-03T11:36:28;1.87;;;1.67;;
76837;SDS011;65797;47.352;8.164;2023-04-03T11:38:59;1.77;;;1.70;;
76837;SDS011;65797;47.352;8.164;2023-04-03T11:41:33;1.60;;;1.50;;
76837;SDS011;65797;47.352;8.164;2023-04-03T11:44:04;2.20;;;1.63;;
76837;SDS011;65797;47.352;8.164;2023-04-03T11:46:57;3.03;;;1.60;;
76837;SDS011;65797;47.352;8.164;2023-04-03T13:12:12;2.53;;;1.60;;
76837;SDS011;65797;47.352;8.164;2023-04-03T13:14:50;3.07;;;2.30;;
76837;SDS011;65797;47.352;8.164;2023-04-03T13:17:20;1.60;;;1.50;;
76837;SDS011;65797;47.352;8.164;2023-04-03T13:19:47;2.07;;;1.90;;
76837;SDS011;65797;47.352;8.164;2023-04-03T13:24:53;2.30;;;2.10;;
76837;SDS011;65797;47.352;8.164;2023-04-03T13:27:26;2.47;;;2.27;;
76837;SDS011;65797;47.352;8.164;2023-04-03T13:29:57;2.00;;;1.80;;
76837;SDS011;65797;47.352;8.164;2023-04-03T13:32:28;1.87;;;1.70;;
76837;SDS011;65797;47.352;8.164;2023-04-03T13:34:55;1.77;;;1.67;;
76837;SDS011;65797;47.352;8.164;2023-04-03T13:39:59;3.40;;;2.27;;
76837;SDS011;65797;47.352;8.164;2023-04-03T13:42:37;6.20;;;1.57;;
76837;SDS011;65797;47.352;8.164;2023-04-03T13:45:27;1.90;;;1.80;;
76837;SDS011;65797;47.352;8.164;2023-04-03T13:51:04;2.00;;;1.90;;
76837;SDS011;65797;47.352;8.164;2023-04-03T13:53:47;2.03;;;1.83;;
76837;SDS011;65797;47.352;8.164;2023-04-03T14:17:00;3.27;;;2.20;;
76837;SDS011;65797;47.352;8.164;2023-04-03T14:22:10;1.90;;;1.80;;
76837;SDS011;65797;47.352;8.164;2023-04-03T14:24:41;1.80;;;1.70;;
76837;SDS011;65797;47.352;8.164;2023-04-03T14:27:24;2.47;;;1.60;;
76837;SDS011;65797;47.352;8.164;2023-04-03T14:29:52;4.63;;;2.30;;
76837;SDS011;65797;47.352;8.164;2023-04-03T14:32:21;2.37;;;2.03;;
76837;SDS011;65797;47.352;8.164;2023-04-03T14:34:48;4.80;;;1.77;;
76837;SDS011;65797;47.352;8.164;2023-04-03T14:37:18;2.93;;;1.73;;
76837;SDS011;65797;47.352;8.164;2023-04-03T14:39:47;1.90;;;1.80;;
76837;SDS011;65797;47.352;8.164;2023-04-03T14:42:18;2.20;;;1.87;;
76837;SDS011;65797;47.352;8.164;2023-04-03T14:44:46;2.53;;;2.13;;
76837;SDS011;65797;47.352;8.164;2023-04-03T14:47:12;4.83;;;2.27;;
76837;SDS011;65797;47.352;8.164;2023-04-03T14:49:41;3.53;;;2.30;;
76837;SDS011;65797;47.352;8.164;2023-04-03T14:52:23;4.63;;;2.17;;
76837;SDS011;65797;47.352;8.164;2023-04-03T14:57:56;2.23;;;2.03;;
76837;SDS011;65797;47.352;8.164;2023-04-03T15:00:22;1.90;;;1.80;;
76837;SDS011;65797;47.352;8.164;2023-04-03T15:05:23;1.80;;;1.70;;
76837;SDS011;65797;47.352;8.164;2023-04-03T15:07:52;2.00;;;1.57;;
76837;SDS011;65797;47.352;8.164;2023-04-03T15:12:55;2.10;;;2.00;;
76837;SDS011;65797;47.352;8.164;2023-04-03T15:15:22;4.10;;;2.37;;
76837;SDS011;65797;47.352;8.164;2023-04-03T15:17:52;2.27;;;2.17;;
76837;SDS011;65797;47.352;8.164;2023-04-03T16:42:49;3.90;;;1.90;;
76837;SDS011;65797;47.352;8.164;2023-04-03T16:45:15;1.87;;;1.67;;
76837;SDS011;65797;47.352;8.164;2023-04-03T16:47:40;1.73;;;1.63;;
76837;SDS011;65797;47.352;8.164;2023-04-03T16:50:18;3.10;;;2.00;;
76837;SDS011;65797;47.352;8.164;2023-04-03T16:52:47;1.73;;;1.63;;
76837;SDS011;65797;47.352;8.164;2023-04-03T16:57:48;3.83;;;2.00;;
76837;SDS011;65797;47.352;8.164;2023-04-03T17:00:14;1.50;;;1.40;;
76837;SDS011;65797;47.352;8.164;2023-04-03T17:05:17;2.07;;;1.83;;
76837;SDS011;65797;47.352;8.164;2023-04-03T17:07:42;1.80;;;1.70;;
76837;SDS011;65797;47.352;8.164;2023-04-03T17:10:08;2.60;;;1.80;;
76837;SDS011;65797;47.352;8.164;2023-04-03T17:12:34;2.53;;;2.33;;
76837;SDS011;65797;47.352;8.164;2023-04-03T17:15:03;2.90;;;2.30;;
76837;SDS011;65797;47.352;8.164;2023-04-03T17:17:29;1.70;;;1.60;;
76837;SDS011;65797;47.352;8.164;2023-04-03T17:19:56;1.80;;;1.70;;
76837;SDS011;65797;47.352;8.164;2023-04-03T17:22:21;3.10;;;2.10;;
76837;SDS011;65797;47.352;8.164;2023-04-03T17:24:47;2.67;;;1.80;;
76837;SDS011;65797;47.352;8.164;2023-04-03T17:27:13;3.40;;;2.27;;
76837;SDS011;65797;47.352;8.164;2023-04-03T17:29:39;2.97;;;2.10;;
76837;SDS011;65797;47.352;8.164;2023-04-03T17:32:05;1.90;;;1.50;;
76837;SDS011;65797;47.352;8.164;2023-04-03T17:34:30;3.23;;;1.87;;
76837;SDS011;65797;47.352;8.164;2023-04-03T17:36:57;2.20;;;2.00;;
76837;SDS011;65797;47.352;8.164;2023-04-03T17:39:23;1.70;;;1.60;;
76837;SDS011;65797;47.352;8.164;2023-04-03T17:41:49;1.87;;;1.77;;
76837;SDS011;65797;47.352;8.164;2023-04-03T17:44:15;2.00;;;1.90;;
76837;SDS011;65797;47.352;8.164;2023-04-03T17:46:41;1.63;;;1.53;;
76837;SDS011;65797;47.352;8.164;2023-04-03T17:49:08;1.77;;;1.67;;
76837;SDS011;65797;47.352;8.164;2023-04-03T17:51:37;3.80;;;2.40;;
76837;SDS011;65797;47.352;8.164;2023-04-03T17:54:03;2.10;;;1.83;;
76837;SDS011;65797;47.352;8.164;2023-04-03T18:01:41;2.30;;;2.10;;
76837;SDS011;65797;47.352;8.164;2023-04-03T18:04:08;3.07;;;2.20;;
76837;SDS011;65797;47.352;8.164;2023-04-03T18:06:38;2.33;;;1.80;;
76837;SDS011;65797;47.352;8.164;2023-04-03T18:09:07;1.90;;;1.80;;
76837;SDS011;65797;47.352;8.164;2023-04-03T18:11:37;3.10;;;2.10;;
76837;SDS011;65797;47.352;8.164;2023-04-03T18:14:03;3.57;;;2.37;;
76837;SDS011;65797;47.352;8.164;2023-04-03T18:16:31;2.47;;;1.90;;
76837;SDS011;65797;47.352;8.164;2023-04-03T18:18:57;2.50;;;2.07;;
76837;SDS011;65797;47.352;8.164;2023-04-03T18:21:23;4.80;;;2.30;;
76837;SDS011;65797;47.352;8.164;2023-04-03T18:23:49;2.47;;;1.93;;
76837;SDS011;65797;47.352;8.164;2023-04-03T18:26:17;2.43;;;2.00;;
76837;SDS011;65797;47.352;8.164;2023-04-03T18:28:45;2.03;;;1.90;;
76837;SDS011;65797;47.352;8.164;2023-04-03T18:31:14;2.90;;;1.97;;
76837;SDS011;65797;47.352;8.164;2023-04-03T18:33:42;3.00;;;2.30;;
76837;SDS011;65797;47.352;8.164;2023-04-03T18:36:08;6.33;;;2.37;;
76837;SDS011;65797;47.352;8.164;2023-04-03T18:38:35;2.10;;;1.90;;
76837;SDS011;65797;47.352;8.164;2023-04-03T18:41:01;3.90;;;1.90;;
76837;SDS011;65797;47.352;8.164;2023-04-03T18:43:27;1.90;;;1.80;;
76837;SDS011;65797;47.352;8.164;2023-04-03T18:45:54;1.83;;;1.73;;
76837;SDS011;65797;47.352;8.164;2023-04-03T18:48:19;2.07;;;1.97;;
76837;SDS011;65797;47.352;8.164;2023-04-03T18:50:45;4.27;;;2.00;;
76837;SDS011;65797;47.352;8.164;2023-04-03T18:53:12;3.20;;;2.30;;
76837;SDS011;65797;47.352;8.164;2023-04-03T18:55:38;4.33;;;2.07;;
76837;SDS011;65797;47.352;8.164;2023-04-03T18:58:04;4.80;;;2.17;;
76837;SDS011;65797;47.352;8.164;2023-04-03T19:00:30;2.40;;;2.07;;
76837;SDS011;65797;47.352;8.164;2023-04-03T19:02:56;3.17;;;2.17;;
76837;SDS011;65797;47.352;8.164;2023-04-03T19:05:22;1.80;;;1.70;;
76837;SDS011;65797;47.352;8.164;2023-04-03T19:07:51;2.00;;;1.60;;
76837;SDS011;65797;47.352;8.164;2023-04-03T19:10:18;1.77;;;1.60;;
76837;SDS011;65797;47.352;8.164;2023-04-03T19:12:47;11.70;;;2.00;;
76837;SDS011;65797;47.352;8.164;2023-04-03T19:15:15;2.10;;;1.90;;
76837;SDS011;65797;47.352;8.164;2023-04-03T19:17:43;2.30;;;2.10;;
76837;SDS011;65797;47.352;8.164;2023-04-03T19:20:11;3.90;;;2.63;;
76837;SDS011;65797;47.352;8.164;2023-04-03T19:22:37;2.30;;;2.10;;
76837;SDS011;65797;47.352;8.164;2023-04-03T19:25:04;2.50;;;2.30;;
76837;SDS011;65797;47.352;8.164;2023-04-03T19:27:34;3.30;;;2.20;;
76837;SDS011;65797;47.352;8.164;2023-04-03T19:30:00;4.73;;;2.13;;
76837;SDS011;65797;47.352;8.164;2023-04-03T19:32:26;2.03;;;1.93;;
76837;SDS011;65797;47.352;8.164;2023-04-03T19:34:52;3.80;;;1.80;;
76837;SDS011;65797;47.352;8.164;2023-04-03T19:37:17;1.80;;;1.70;;
76837;SDS011;65797;47.352;8.164;2023-04-03T19:39:44;3.17;;;1.87;;
76837;SDS011;65797;47.352;8.164;2023-04-03T19:42:10;2.40;;;1.90;;
76837;SDS011;65797;47.352;8.164;2023-04-03T19:44:36;4.90;;;1.90;;
76837;SDS011;65797;47.352;8.164;2023-04-03T19:47:02;3.03;;;1.83;;
76837;SDS011;65797;47.352;8.164;2023-04-03T19:49:28;5.53;;;2.40;;
76837;SDS011;65797;47.352;8.164;2023-04-03T19:51:55;2.93;;;1.93;;
76837;SDS011;65797;47.352;8.164;2023-04-03T19:54:21;2.20;;;1.90;;
76837;SDS011;65797;47.352;8.164;2023-04-03T19:56:47;3.90;;;2.30;;
76837;SDS011;65797;47.352;8.164;2023-04-03T19:59:14;2.50;;;1.90;;
76837;SDS011;65797;47.352;8.164;2023-04-03T20:01:40;3.33;;;2.10;;
76837;SDS011;65797;47.352;8.164;2023-04-03T20:04:07;2.60;;;1.70;;
76837;SDS011;65797;47.352;8.164;2023-04-03T20:06:36;2.20;;;1.80;;
76837;SDS011;65797;47.352;8.164;2023-04-03T20:09:02;3.23;;;1.87;;
76837;SDS011;65797;47.352;8.164;2023-04-03T20:11:28;2.23;;;1.73;;
76837;SDS011;65797;47.352;8.164;2023-04-03T20:13:54;2.50;;;2.30;;
76837;SDS011;65797;47.352;8.164;2023-04-03T20:16:20;3.80;;;2.10;;
76837;SDS011;65797;47.352;8.164;2023-04-03T20:18:48;5.13;;;2.17;;
76837;SDS011;65797;47.352;8.164;2023-04-03T20:21:14;7.40;;;4.30;;
76837;SDS011;65797;47.352;8.164;2023-04-03T20:23:42;4.10;;;2.10;;
76837;SDS011;65797;47.352;8.164;2023-04-03T20:26:17;3.70;;;1.93;;
76837;SDS011;65797;47.352;8.164;2023-04-03T20:28:48;1.63;;;1.53;;
76837;SDS011;65797;47.352;8.164;2023-04-03T20:31:19;4.60;;;1.90;;
76837;SDS011;65797;47.352;8.164;2023-04-03T20:33:46;2.70;;;2.33;;
76837;SDS011;65797;47.352;8.164;2023-04-03T20:36:13;4.50;;;1.47;;
76837;SDS011;65797;47.352;8.164;2023-04-03T20:38:39;2.77;;;1.93;;
76837;SDS011;65797;47.352;8.164;2023-04-03T20:41:05;4.87;;;1.80;;
76837;SDS011;65797;47.352;8.164;2023-04-03T20:43:32;2.33;;;2.00;;
76837;SDS011;65797;47.352;8.164;2023-04-03T20:45:58;2.23;;;1.60;;
76837;SDS011;65797;47.352;8.164;2023-04-03T20:48:28;2.03;;;1.50;;
76837;SDS011;65797;47.352;8.164;2023-04-03T20:50:55;2.07;;;1.80;;
76837;SDS011;65797;47.352;8.164;2023-04-03T20:53:22;3.90;;;2.00;;
76837;SDS011;65797;47.352;8.164;2023-04-03T20:55:57;2.47;;;1.47;;
76837;SDS011;65797;47.352;8.164;2023-04-03T20:58:25;3.60;;;1.77;;
76837;SDS011;65797;47.352;8.164;2023-04-03T21:00:53;3.63;;;1.47;;
76837;SDS011;65797;47.352;8.164;2023-04-03T21:03:21;6.20;;;1.63;;
76837;SDS011;65797;47.352;8.164;2023-04-03T21:05:47;1.87;;;1.67;;
76837;SDS011;65797;47.352;8.164;2023-04-03T21:19:52;6.03;;;1.67;;
76837;SDS011;65797;47.352;8.164;2023-04-03T21:22:17;5.23;;;1.70;;
76837;SDS011;65797;47.352;8.164;2023-04-03T21:24:45;2.00;;;1.40;;
76837;SDS011;65797;47.352;8.164;2023-04-03T21:27:11;1.30;;;1.20;;
76837;SDS011;65797;47.352;8.164;2023-04-03T21:29:37;2.50;;;1.20;;
76837;SDS011;65797;47.352;8.164;2023-04-03T21:32:03;1.63;;;1.47;;
76837;SDS011;65797;47.352;8.164;2023-04-03T21:34:29;3.50;;;1.40;;
76837;SDS011;65797;47.352;8.164;2023-04-03T21:36:55;4.03;;;1.90;;
76837;SDS011;65797;47.352;8.164;2023-04-03T21:39:25;1.60;;;1.50;;
76837;SDS011;65797;47.352;8.164;2023-04-03T21:41:51;2.00;;;1.47;;
76837;SDS011;65797;47.352;8.164;2023-04-03T21:44:17;4.50;;;1.70;;